sensor_id;sensor_type;location;lat;lon;timestamp;temperature;humidity
26743;DHT22;14341;51.256;22.478;2022-09-21T00:03:06;8.10;99.90
26743;DHT22;14341;51.256;22.478;2022-09-21T00:06:11;8.30;99.90
26743;DHT22;14341;51.256;22.478;2022-09-21T00:09:16;8.40;99.90
26743;DHT22;14341;51.256;22.478;2022-09-21T00:12:20;8.40;99.90
26743;DHT22;14341;51.256;22.478;2022-09-21T00:15:23;8.50;99.90
26743;DHT22;14341;51.256;22.478;2022-09-21T00:18:27;8.60;99.90
26743;DHT22;14341;51.256;22.478;2022-09-21T00:21:32;8.70;99.90
26743;DHT22;14341;51.256;22.478;2022-09-21T00:24:37;8.80;99.90
26743;DHT22;14341;51.256;22.478;2022-09-21T00:27:41;8.90;99.90
26743;DHT22;14341;51.256;22.478;2022-09-21T00:30:44;8.90;99.90
26743;DHT22;14341;51.256;22.478;2022-09-21T00:33:52;8.90;99.90
26743;DHT22;14341;51.256;22.478;2022-09-21T00:36:56;8.90;99.90
26743;DHT22;14341;51.256;22.478;2022-09-21T00:40:01;9.00;99.90
26743;DHT22;14341;51.256;22.478;2022-09-21T00:43:12;9.00;99.90
26743;DHT22;14341;51.256;22.478;2022-09-21T00:46:22;9.00;99.90
26743;DHT22;14341;51.256;22.478;2022-09-21T00:49:28;9.00;99.90
26743;DHT22;14341;51.256;22.478;2022-09-21T00:52:37;9.00;99.90
26743;DHT22;14341;51.256;22.478;2022-09-21T00:55:46;9.00;99.90
26743;DHT22;14341;51.256;22.478;2022-09-21T00:58:53;9.00;99.90
26743;DHT22;14341;51.256;22.478;2022-09-21T01:01:57;9.00;99.90
26743;DHT22;14341;51.256;22.478;2022-09-21T01:05:02;8.90;99.90
26743;DHT22;14341;51.256;22.478;2022-09-21T01:08:06;9.00;99.90
26743;DHT22;14341;51.256;22.478;2022-09-21T01:11:28;8.90;99.90
26743;DHT22;14341;51.256;22.478;2022-09-21T01:14:53;8.90;99.90
26743;DHT22;14341;51.256;22.478;2022-09-21T01:18:05;8.90;99.90
26743;DHT22;14341;51.256;22.478;2022-09-21T01:21:19;8.90;99.90
26743;DHT22;14341;51.256;22.478;2022-09-21T01:24:44;8.90;99.90
26743;DHT22;14341;51.256;22.478;2022-09-21T01:28:09;8.90;99.90
26743;DHT22;14341;51.256;22.478;2022-09-21T01:31:21;8.90;99.90
26743;DHT22;14341;51.256;22.478;2022-09-21T01:34:29;8.90;99.90
26743;DHT22;14341;51.256;22.478;2022-09-21T01:37:37;8.80;99.90
26743;DHT22;14341;51.256;22.478;2022-09-21T01:40:44;8.80;99.90
26743;DHT22;14341;51.256;22.478;2022-09-21T01:43:52;8.80;99.90
26743;DHT22;14341;51.256;22.478;2022-09-21T01:46:59;8.80;99.90
26743;DHT22;14341;51.256;22.478;2022-09-21T01:50:05;8.80;99.90
26743;DHT22;14341;51.256;22.478;2022-09-21T01:53:15;8.80;99.90
26743;DHT22;14341;51.256;22.478;2022-09-21T01:56:24;8.70;99.90
26743;DHT22;14341;51.256;22.478;2022-09-21T01:59:33;8.70;99.90
26743;DHT22;14341;51.256;22.478;2022-09-21T02:02:45;8.80;99.90
26743;DHT22;14341;51.256;22.478;2022-09-21T02:05:51;8.80;99.90
26743;DHT22;14341;51.256;22.478;2022-09-21T02:08:55;8.80;99.90
26743;DHT22;14341;51.256;22.478;2022-09-21T02:12:00;8.80;99.90
26743;DHT22;14341;51.256;22.478;2022-09-21T02:15:04;8.80;99.90
26743;DHT22;14341;51.256;22.478;2022-09-21T02:18:15;8.70;99.90
26743;DHT22;14341;51.256;22.478;2022-09-21T02:21:24;8.70;99.90
26743;DHT22;14341;51.256;22.478;2022-09-21T02:24:38;8.70;99.90
26743;DHT22;14341;51.256;22.478;2022-09-21T02:27:51;8.80;99.90
26743;DHT22;14341;51.256;22.478;2022-09-21T02:31:00;8.80;99.90
26743;DHT22;14341;51.256;22.478;2022-09-21T02:34:17;8.80;99.90
26743;DHT22;14341;51.256;22.478;2022-09-21T02:37:26;8.80;99.90
26743;DHT22;14341;51.256;22.478;2022-09-21T02:40:35;8.80;99.90
26743;DHT22;14341;51.256;22.478;2022-09-21T02:43:42;8.70;99.90
26743;DHT22;14341;51.256;22.478;2022-09-21T02:46:50;8.80;99.90
26743;DHT22;14341;51.256;22.478;2022-09-21T02:50:00;8.70;99.90
26743;DHT22;14341;51.256;22.478;2022-09-21T02:53:05;8.70;99.90
26743;DHT22;14341;51.256;22.478;2022-09-21T02:56:11;8.70;99.90
26743;DHT22;14341;51.256;22.478;2022-09-21T02:59:15;8.70;99.90
26743;DHT22;14341;51.256;22.478;2022-09-21T03:02:18;8.70;99.90
26743;DHT22;14341;51.256;22.478;2022-09-21T03:05:23;8.60;99.90
26743;DHT22;14341;51.256;22.478;2022-09-21T03:08:27;8.70;99.90
26743;DHT22;14341;51.256;22.478;2022-09-21T03:11:31;8.60;99.90
26743;DHT22;14341;51.256;22.478;2022-09-21T03:14:36;8.70;99.90
26743;DHT22;14341;51.256;22.478;2022-09-21T03:17:40;8.70;99.90
26743;DHT22;14341;51.256;22.478;2022-09-21T03:20:44;8.70;99.90
26743;DHT22;14341;51.256;22.478;2022-09-21T03:23:48;8.70;99.90
26743;DHT22;14341;51.256;22.478;2022-09-21T03:26:51;8.60;99.90
26743;DHT22;14341;51.256;22.478;2022-09-21T03:29:54;8.60;99.90
26743;DHT22;14341;51.256;22.478;2022-09-21T03:33:03;8.70;99.90
26743;DHT22;14341;51.256;22.478;2022-09-21T03:36:08;8.70;99.90
26743;DHT22;14341;51.256;22.478;2022-09-21T03:39:12;8.60;99.90
26743;DHT22;14341;51.256;22.478;2022-09-21T03:42:18;8.70;99.90
26743;DHT22;14341;51.256;22.478;2022-09-21T03:45:21;8.70;99.90
26743;DHT22;14341;51.256;22.478;2022-09-21T03:48:25;8.60;99.90
26743;DHT22;14341;51.256;22.478;2022-09-21T03:51:30;8.60;99.90
26743;DHT22;14341;51.256;22.478;2022-09-21T03:54:33;8.70;99.90
26743;DHT22;14341;51.256;22.478;2022-09-21T03:57:37;8.70;99.90
26743;DHT22;14341;51.256;22.478;2022-09-21T04:00:40;8.80;99.90
26743;DHT22;14341;51.256;22.478;2022-09-21T04:03:43;8.70;99.90
26743;DHT22;14341;51.256;22.478;2022-09-21T04:06:48;8.80;99.90
26743;DHT22;14341;51.256;22.478;2022-09-21T04:09:51;8.80;99.90
26743;DHT22;14341;51.256;22.478;2022-09-21T04:12:56;8.80;99.90
26743;DHT22;14341;51.256;22.478;2022-09-21T04:16:01;8.80;99.90
26743;DHT22;14341;51.256;22.478;2022-09-21T04:19:04;8.80;99.90
26743;DHT22;14341;51.256;22.478;2022-09-21T04:22:09;8.90;99.90
26743;DHT22;14341;51.256;22.478;2022-09-21T04:25:14;8.90;99.90
26743;DHT22;14341;51.256;22.478;2022-09-21T04:28:18;8.80;99.90
26743;DHT22;14341;51.256;22.478;2022-09-21T04:31:22;8.80;99.90
26743;DHT22;14341;51.256;22.478;2022-09-21T04:34:28;8.90;99.90
26743;DHT22;14341;51.256;22.478;2022-09-21T04:37:33;8.80;99.90
26743;DHT22;14341;51.256;22.478;2022-09-21T04:40:37;8.80;99.90
26743;DHT22;14341;51.256;22.478;2022-09-21T04:43:40;8.80;99.90
26743;DHT22;14341;51.256;22.478;2022-09-21T04:46:44;8.80;99.90
26743;DHT22;14341;51.256;22.478;2022-09-21T04:49:47;8.80;99.90
26743;DHT22;14341;51.256;22.478;2022-09-21T04:52:52;8.80;99.90
26743;DHT22;14341;51.256;22.478;2022-09-21T04:55:55;8.80;99.90
26743;DHT22;14341;51.256;22.478;2022-09-21T04:58:59;8.90;99.90
26743;DHT22;14341;51.256;22.478;2022-09-21T05:02:03;8.90;99.90
26743;DHT22;14341;51.256;22.478;2022-09-21T05:05:07;9.00;99.90
26743;DHT22;14341;51.256;22.478;2022-09-21T05:08:12;9.00;99.90
26743;DHT22;14341;51.256;22.478;2022-09-21T05:11:17;8.90;99.90
26743;DHT22;14341;51.256;22.478;2022-09-21T05:14:19;8.90;99.90
26743;DHT22;14341;51.256;22.478;2022-09-21T05:17:23;8.90;99.90
26743;DHT22;14341;51.256;22.478;2022-09-21T05:20:27;8.90;99.90
26743;DHT22;14341;51.256;22.478;2022-09-21T05:23:32;9.00;99.90
26743;DHT22;14341;51.256;22.478;2022-09-21T05:26:36;9.10;99.90
26743;DHT22;14341;51.256;22.478;2022-09-21T05:29:40;9.00;99.90
26743;DHT22;14341;51.256;22.478;2022-09-21T05:32:47;9.10;99.90
26743;DHT22;14341;51.256;22.478;2022-09-21T05:36:00;9.10;99.90
26743;DHT22;14341;51.256;22.478;2022-09-21T05:39:06;9.20;99.90
26743;DHT22;14341;51.256;22.478;2022-09-21T05:42:11;9.20;99.90
26743;DHT22;14341;51.256;22.478;2022-09-21T05:45:16;9.20;99.90
26743;DHT22;14341;51.256;22.478;2022-09-21T05:48:21;9.20;99.90
26743;DHT22;14341;51.256;22.478;2022-09-21T05:51:33;9.20;99.90
26743;DHT22;14341;51.256;22.478;2022-09-21T05:54:51;9.20;99.90
26743;DHT22;14341;51.256;22.478;2022-09-21T05:58:03;9.20;99.90
26743;DHT22;14341;51.256;22.478;2022-09-21T06:01:18;9.20;99.90
26743;DHT22;14341;51.256;22.478;2022-09-21T06:04:24;9.30;99.90
26743;DHT22;14341;51.256;22.478;2022-09-21T06:07:27;9.30;99.90
26743;DHT22;14341;51.256;22.478;2022-09-21T06:10:33;9.30;99.90
26743;DHT22;14341;51.256;22.478;2022-09-21T06:13:37;9.40;99.90
26743;DHT22;14341;51.256;22.478;2022-09-21T06:16:42;9.30;99.90
26743;DHT22;14341;51.256;22.478;2022-09-21T06:19:46;9.40;99.90
26743;DHT22;14341;51.256;22.478;2022-09-21T06:22:50;9.30;99.90
26743;DHT22;14341;51.256;22.478;2022-09-21T06:25:55;9.30;99.90
26743;DHT22;14341;51.256;22.478;2022-09-21T06:28:59;9.40;99.90
26743;DHT22;14341;51.256;22.478;2022-09-21T06:32:03;9.40;99.90
26743;DHT22;14341;51.256;22.478;2022-09-21T06:35:08;9.50;99.90
26743;DHT22;14341;51.256;22.478;2022-09-21T06:38:12;9.50;99.90
26743;DHT22;14341;51.256;22.478;2022-09-21T06:41:17;9.50;99.90
26743;DHT22;14341;51.256;22.478;2022-09-21T06:44:22;9.60;99.90
26743;DHT22;14341;51.256;22.478;2022-09-21T06:47:25;9.60;99.90
26743;DHT22;14341;51.256;22.478;2022-09-21T06:50:28;9.60;99.90
26743;DHT22;14341;51.256;22.478;2022-09-21T06:53:33;9.70;99.90
26743;DHT22;14341;51.256;22.478;2022-09-21T06:56:37;9.70;99.90
26743;DHT22;14341;51.256;22.478;2022-09-21T06:59:43;9.80;99.90
26743;DHT22;14341;51.256;22.478;2022-09-21T07:02:47;9.80;99.90
26743;DHT22;14341;51.256;22.478;2022-09-21T07:05:52;9.80;99.90
26743;DHT22;14341;51.256;22.478;2022-09-21T07:09:15;9.80;99.90
26743;DHT22;14341;51.256;22.478;2022-09-21T07:12:40;9.90;99.90
26743;DHT22;14341;51.256;22.478;2022-09-21T07:15:44;9.90;99.90
26743;DHT22;14341;51.256;22.478;2022-09-21T07:18:53;9.90;99.90
26743;DHT22;14341;51.256;22.478;2022-09-21T07:21:58;9.80;99.90
26743;DHT22;14341;51.256;22.478;2022-09-21T07:25:02;9.90;99.90
26743;DHT22;14341;51.256;22.478;2022-09-21T07:28:08;9.90;99.90
26743;DHT22;14341;51.256;22.478;2022-09-21T07:31:13;9.90;99.90
26743;DHT22;14341;51.256;22.478;2022-09-21T07:34:16;10.00;99.90
26743;DHT22;14341;51.256;22.478;2022-09-21T07:37:20;10.00;99.90
26743;DHT22;14341;51.256;22.478;2022-09-21T07:40:25;10.00;99.90
26743;DHT22;14341;51.256;22.478;2022-09-21T07:43:29;10.00;99.90
26743;DHT22;14341;51.256;22.478;2022-09-21T07:46:34;10.10;99.90
26743;DHT22;14341;51.256;22.478;2022-09-21T07:49:40;10.10;99.90
26743;DHT22;14341;51.256;22.478;2022-09-21T07:52:44;10.20;99.90
26743;DHT22;14341;51.256;22.478;2022-09-21T07:55:47;10.20;99.90
26743;DHT22;14341;51.256;22.478;2022-09-21T07:58:52;10.30;99.90
26743;DHT22;14341;51.256;22.478;2022-09-21T08:02:10;10.30;99.90
26743;DHT22;14341;51.256;22.478;2022-09-21T08:05:14;10.40;99.90
26743;DHT22;14341;51.256;22.478;2022-09-21T08:08:17;10.50;99.90
26743;DHT22;14341;51.256;22.478;2022-09-21T08:11:22;10.50;99.90
26743;DHT22;14341;51.256;22.478;2022-09-21T08:14:28;10.70;99.90
26743;DHT22;14341;51.256;22.478;2022-09-21T08:17:31;10.90;99.90
26743;DHT22;14341;51.256;22.478;2022-09-21T08:20:34;11.10;99.90
26743;DHT22;14341;51.256;22.478;2022-09-21T08:23:37;11.20;99.90
26743;DHT22;14341;51.256;22.478;2022-09-21T08:26:43;11.40;99.90
26743;DHT22;14341;51.256;22.478;2022-09-21T08:29:48;11.60;99.90
26743;DHT22;14341;51.256;22.478;2022-09-21T08:32:53;11.80;99.90
26743;DHT22;14341;51.256;22.478;2022-09-21T08:35:59;11.90;99.90
26743;DHT22;14341;51.256;22.478;2022-09-21T08:39:05;11.70;99.90
26743;DHT22;14341;51.256;22.478;2022-09-21T08:42:18;11.80;99.90
26743;DHT22;14341;51.256;22.478;2022-09-21T08:45:29;12.00;99.90
26743;DHT22;14341;51.256;22.478;2022-09-21T08:48:38;12.30;99.90
26743;DHT22;14341;51.256;22.478;2022-09-21T08:51:48;12.40;99.90
26743;DHT22;14341;51.256;22.478;2022-09-21T08:54:55;12.20;99.90
26743;DHT22;14341;51.256;22.478;2022-09-21T08:58:00;12.00;99.90
26743;DHT22;14341;51.256;22.478;2022-09-21T09:01:19;12.20;99.90
26743;DHT22;14341;51.256;22.478;2022-09-21T09:04:43;12.20;99.90
26743;DHT22;14341;51.256;22.478;2022-09-21T09:08:04;12.00;99.90
26743;DHT22;14341;51.256;22.478;2022-09-21T09:11:20;11.70;99.90
26743;DHT22;14341;51.256;22.478;2022-09-21T09:14:47;11.40;99.90
26743;DHT22;14341;51.256;22.478;2022-09-21T09:17:58;11.30;99.90
26743;DHT22;14341;51.256;22.478;2022-09-21T09:21:07;11.30;99.90
26743;DHT22;14341;51.256;22.478;2022-09-21T09:24:15;11.40;99.90
26743;DHT22;14341;51.256;22.478;2022-09-21T09:27:22;11.70;99.90
26743;DHT22;14341;51.256;22.478;2022-09-21T09:30:29;12.30;99.90
26743;DHT22;14341;51.256;22.478;2022-09-21T09:33:46;12.70;99.90
26743;DHT22;14341;51.256;22.478;2022-09-21T09:36:56;12.90;99.90
26743;DHT22;14341;51.256;22.478;2022-09-21T09:40:02;12.80;99.90
26743;DHT22;14341;51.256;22.478;2022-09-21T09:43:13;12.70;99.90
26743;DHT22;14341;51.256;22.478;2022-09-21T09:46:25;12.50;99.90
26743;DHT22;14341;51.256;22.478;2022-09-21T09:49:40;12.40;99.90
26743;DHT22;14341;51.256;22.478;2022-09-21T09:52:50;12.60;99.90
26743;DHT22;14341;51.256;22.478;2022-09-21T09:55:56;12.70;99.90
26743;DHT22;14341;51.256;22.478;2022-09-21T09:59:03;13.00;99.90
26743;DHT22;14341;51.256;22.478;2022-09-21T10:02:19;13.10;99.90
26743;DHT22;14341;51.256;22.478;2022-09-21T10:05:30;13.30;99.90
26743;DHT22;14341;51.256;22.478;2022-09-21T10:08:40;13.50;99.90
26743;DHT22;14341;51.256;22.478;2022-09-21T10:11:44;13.50;99.90
26743;DHT22;14341;51.256;22.478;2022-09-21T10:14:50;13.70;99.90
26743;DHT22;14341;51.256;22.478;2022-09-21T10:18:04;13.60;99.90
26743;DHT22;14341;51.256;22.478;2022-09-21T10:21:16;13.30;99.90
26743;DHT22;14341;51.256;22.478;2022-09-21T10:24:22;12.80;99.90
26743;DHT22;14341;51.256;22.478;2022-09-21T10:27:27;12.50;99.90
26743;DHT22;14341;51.256;22.478;2022-09-21T10:30:33;12.10;99.90
26743;DHT22;14341;51.256;22.478;2022-09-21T10:33:51;11.80;99.90
26743;DHT22;14341;51.256;22.478;2022-09-21T10:36:57;11.70;99.90
26743;DHT22;14341;51.256;22.478;2022-09-21T10:40:02;11.60;99.90
26743;DHT22;14341;51.256;22.478;2022-09-21T10:43:22;11.60;99.90
26743;DHT22;14341;51.256;22.478;2022-09-21T10:46:32;11.70;99.90
26743;DHT22;14341;51.256;22.478;2022-09-21T10:49:36;11.80;99.90
26743;DHT22;14341;51.256;22.478;2022-09-21T10:52:46;11.90;99.90
26743;DHT22;14341;51.256;22.478;2022-09-21T10:55:55;12.20;99.90
26743;DHT22;14341;51.256;22.478;2022-09-21T10:59:21;12.30;99.90
26743;DHT22;14341;51.256;22.478;2022-09-21T11:02:33;12.20;99.90
26743;DHT22;14341;51.256;22.478;2022-09-21T11:05:40;12.00;99.90
26743;DHT22;14341;51.256;22.478;2022-09-21T11:08:53;11.90;99.90
26743;DHT22;14341;51.256;22.478;2022-09-21T11:12:02;11.90;99.90
26743;DHT22;14341;51.256;22.478;2022-09-21T11:15:11;12.00;99.90
26743;DHT22;14341;51.256;22.478;2022-09-21T11:18:21;12.10;99.90
26743;DHT22;14341;51.256;22.478;2022-09-21T11:21:31;12.20;99.90
26743;DHT22;14341;51.256;22.478;2022-09-21T11:24:44;12.20;99.90
26743;DHT22;14341;51.256;22.478;2022-09-21T11:27:53;12.30;99.90
26743;DHT22;14341;51.256;22.478;2022-09-21T11:31:09;12.40;99.90
26743;DHT22;14341;51.256;22.478;2022-09-21T11:34:32;12.70;99.90
26743;DHT22;14341;51.256;22.478;2022-09-21T11:37:50;12.70;99.90
26743;DHT22;14341;51.256;22.478;2022-09-21T11:41:05;12.60;99.90
26743;DHT22;14341;51.256;22.478;2022-09-21T11:44:24;12.50;99.90
26743;DHT22;14341;51.256;22.478;2022-09-21T11:47:48;12.20;99.90
26743;DHT22;14341;51.256;22.478;2022-09-21T11:51:03;12.00;99.90
26743;DHT22;14341;51.256;22.478;2022-09-21T11:57:53;12.40;99.90
26743;DHT22;14341;51.256;22.478;2022-09-21T12:01:07;12.90;99.90
26743;DHT22;14341;51.256;22.478;2022-09-21T12:04:31;13.10;99.90
26743;DHT22;14341;51.256;22.478;2022-09-21T12:07:49;13.40;99.90
26743;DHT22;14341;51.256;22.478;2022-09-21T12:11:00;13.50;99.90
26743;DHT22;14341;51.256;22.478;2022-09-21T12:14:14;13.60;99.90
26743;DHT22;14341;51.256;22.478;2022-09-21T12:17:25;13.50;99.90
26743;DHT22;14341;51.256;22.478;2022-09-21T12:20:38;13.70;99.90
26743;DHT22;14341;51.256;22.478;2022-09-21T12:23:48;14.00;99.90
26743;DHT22;14341;51.256;22.478;2022-09-21T12:26:56;14.10;99.90
26743;DHT22;14341;51.256;22.478;2022-09-21T12:30:10;14.00;99.90
26743;DHT22;14341;51.256;22.478;2022-09-21T12:33:18;14.40;99.90
26743;DHT22;14341;51.256;22.478;2022-09-21T12:36:27;14.70;99.90
26743;DHT22;14341;51.256;22.478;2022-09-21T12:39:37;14.50;98.70
26743;DHT22;14341;51.256;22.478;2022-09-21T12:42:45;14.50;99.90
26743;DHT22;14341;51.256;22.478;2022-09-21T12:45:55;14.40;97.20
26743;DHT22;14341;51.256;22.478;2022-09-21T12:49:02;14.20;99.90
26743;DHT22;14341;51.256;22.478;2022-09-21T12:52:15;14.30;99.90
26743;DHT22;14341;51.256;22.478;2022-09-21T12:55:33;14.70;99.90
26743;DHT22;14341;51.256;22.478;2022-09-21T12:59:09;14.90;93.90
26743;DHT22;14341;51.256;22.478;2022-09-21T13:02:18;15.60;83.10
26743;DHT22;14341;51.256;22.478;2022-09-21T13:05:34;16.00;74.00
26743;DHT22;14341;51.256;22.478;2022-09-21T13:08:41;16.10;27.80
26743;DHT22;14341;51.256;22.478;2022-09-21T13:11:51;15.90;22.40
26743;DHT22;14341;51.256;22.478;2022-09-21T13:15:02;15.50;39.10
26743;DHT22;14341;51.256;22.478;2022-09-21T13:18:16;15.20;59.30
26743;DHT22;14341;51.256;22.478;2022-09-21T13:21:24;14.60;76.10
26743;DHT22;14341;51.256;22.478;2022-09-21T13:24:29;14.50;88.90
26743;DHT22;14341;51.256;22.478;2022-09-21T13:27:57;14.50;95.90
26743;DHT22;14341;51.256;22.478;2022-09-21T13:39:14;15.90;41.70
26743;DHT22;14341;51.256;22.478;2022-09-21T13:42:43;15.60;36.40
26743;DHT22;14341;51.256;22.478;2022-09-21T13:45:51;15.40;35.20
26743;DHT22;14341;51.256;22.478;2022-09-21T13:48:55;15.00;70.00
26743;DHT22;14341;51.256;22.478;2022-09-21T13:52:01;15.10;64.20
26743;DHT22;14341;51.256;22.478;2022-09-21T13:55:21;14.80;60.50
26743;DHT22;14341;51.256;22.478;2022-09-21T13:58:29;14.80;66.00
26743;DHT22;14341;51.256;22.478;2022-09-21T14:01:35;15.10;61.80
26743;DHT22;14341;51.256;22.478;2022-09-21T14:05:03;15.10;58.30
26743;DHT22;14341;51.256;22.478;2022-09-21T14:08:23;15.20;54.70
26743;DHT22;14341;51.256;22.478;2022-09-21T14:11:32;15.30;54.50
26743;DHT22;14341;51.256;22.478;2022-09-21T14:14:38;15.10;55.50
26743;DHT22;14341;51.256;22.478;2022-09-21T14:17:43;14.90;59.30
26743;DHT22;14341;51.256;22.478;2022-09-21T14:21:08;14.60;69.80
26743;DHT22;14341;51.256;22.478;2022-09-21T14:24:19;14.70;61.30
26743;DHT22;14341;51.256;22.478;2022-09-21T14:27:27;14.30;72.20
26743;DHT22;14341;51.256;22.478;2022-09-21T14:30:34;14.00;77.40
26743;DHT22;14341;51.256;22.478;2022-09-21T14:33:44;13.60;78.70
26743;DHT22;14341;51.256;22.478;2022-09-21T14:36:51;12.90;76.70
26743;DHT22;14341;51.256;22.478;2022-09-21T14:39:57;12.30;99.90
26743;DHT22;14341;51.256;22.478;2022-09-21T14:43:09;11.80;99.90
26743;DHT22;14341;51.256;22.478;2022-09-21T14:50:30;11.30;99.90
26743;DHT22;14341;51.256;22.478;2022-09-21T14:53:53;11.10;99.90
26743;DHT22;14341;51.256;22.478;2022-09-21T14:57:08;11.10;99.90
26743;DHT22;14341;51.256;22.478;2022-09-21T15:00:19;11.10;99.90
26743;DHT22;14341;51.256;22.478;2022-09-21T15:03:39;11.10;99.90
26743;DHT22;14341;51.256;22.478;2022-09-21T15:06:54;11.10;99.90
26743;DHT22;14341;51.256;22.478;2022-09-21T15:10:23;11.10;99.90
26743;DHT22;14341;51.256;22.478;2022-09-21T15:14:10;11.10;99.90
26743;DHT22;14341;51.256;22.478;2022-09-21T15:17:23;11.10;99.90
26743;DHT22;14341;51.256;22.478;2022-09-21T15:20:57;11.10;99.90
26743;DHT22;14341;51.256;22.478;2022-09-21T15:24:16;11.30;99.90
26743;DHT22;14341;51.256;22.478;2022-09-21T15:27:24;11.30;99.90
26743;DHT22;14341;51.256;22.478;2022-09-21T15:30:41;11.40;99.90
26743;DHT22;14341;51.256;22.478;2022-09-21T15:33:50;11.50;99.90
26743;DHT22;14341;51.256;22.478;2022-09-21T15:37:05;11.40;99.90
26743;DHT22;14341;51.256;22.478;2022-09-21T15:40:17;11.40;99.90
26743;DHT22;14341;51.256;22.478;2022-09-21T15:43:21;11.40;99.90
26743;DHT22;14341;51.256;22.478;2022-09-21T15:46:25;11.30;99.90
26743;DHT22;14341;51.256;22.478;2022-09-21T15:49:32;11.30;99.90
26743;DHT22;14341;51.256;22.478;2022-09-21T15:52:40;11.40;99.90
26743;DHT22;14341;51.256;22.478;2022-09-21T15:55:46;11.40;99.90
26743;DHT22;14341;51.256;22.478;2022-09-21T15:58:57;11.40;99.90
26743;DHT22;14341;51.256;22.478;2022-09-21T16:02:11;11.40;99.90
26743;DHT22;14341;51.256;22.478;2022-09-21T16:05:23;11.30;99.90
26743;DHT22;14341;51.256;22.478;2022-09-21T16:08:30;11.30;99.90
26743;DHT22;14341;51.256;22.478;2022-09-21T16:11:35;11.30;99.90
26743;DHT22;14341;51.256;22.478;2022-09-21T16:14:46;11.20;99.90
26743;DHT22;14341;51.256;22.478;2022-09-21T16:18:05;11.20;99.90
26743;DHT22;14341;51.256;22.478;2022-09-21T16:21:16;11.10;99.90
26743;DHT22;14341;51.256;22.478;2022-09-21T16:24:22;11.20;99.90
26743;DHT22;14341;51.256;22.478;2022-09-21T16:27:31;11.10;99.90
26743;DHT22;14341;51.256;22.478;2022-09-21T16:30:44;11.10;99.90
26743;DHT22;14341;51.256;22.478;2022-09-21T16:34:02;11.10;99.90
26743;DHT22;14341;51.256;22.478;2022-09-21T16:37:32;11.00;99.90
26743;DHT22;14341;51.256;22.478;2022-09-21T16:40:38;10.90;99.90
26743;DHT22;14341;51.256;22.478;2022-09-21T16:43:59;10.80;99.90
26743;DHT22;14341;51.256;22.478;2022-09-21T16:47:11;10.80;99.90
26743;DHT22;14341;51.256;22.478;2022-09-21T16:50:16;10.70;99.90
26743;DHT22;14341;51.256;22.478;2022-09-21T16:53:22;10.60;99.90
26743;DHT22;14341;51.256;22.478;2022-09-21T16:56:28;10.50;99.90
26743;DHT22;14341;51.256;22.478;2022-09-21T16:59:32;10.60;99.90
26743;DHT22;14341;51.256;22.478;2022-09-21T17:02:38;10.60;99.90
26743;DHT22;14341;51.256;22.478;2022-09-21T17:05:46;10.50;99.90
26743;DHT22;14341;51.256;22.478;2022-09-21T17:08:51;10.40;99.90
26743;DHT22;14341;51.256;22.478;2022-09-21T17:11:57;10.40;99.90
26743;DHT22;14341;51.256;22.478;2022-09-21T17:15:03;10.30;99.90
26743;DHT22;14341;51.256;22.478;2022-09-21T17:18:09;10.30;99.90
26743;DHT22;14341;51.256;22.478;2022-09-21T17:21:15;10.20;99.90
26743;DHT22;14341;51.256;22.478;2022-09-21T17:24:23;10.20;99.90
26743;DHT22;14341;51.256;22.478;2022-09-21T17:27:48;10.20;99.90
26743;DHT22;14341;51.256;22.478;2022-09-21T17:30:54;10.10;99.90
26743;DHT22;14341;51.256;22.478;2022-09-21T17:34:06;10.10;99.90
26743;DHT22;14341;51.256;22.478;2022-09-21T17:37:11;10.10;99.90
26743;DHT22;14341;51.256;22.478;2022-09-21T17:40:18;10.10;99.90
26743;DHT22;14341;51.256;22.478;2022-09-21T17:43:33;10.00;99.90
26743;DHT22;14341;51.256;22.478;2022-09-21T17:46:45;10.00;99.90
26743;DHT22;14341;51.256;22.478;2022-09-21T17:49:51;10.10;99.90
26743;DHT22;14341;51.256;22.478;2022-09-21T17:52:56;10.10;99.90
26743;DHT22;14341;51.256;22.478;2022-09-21T17:56:28;10.00;99.90
26743;DHT22;14341;51.256;22.478;2022-09-21T17:59:35;10.00;99.90
26743;DHT22;14341;51.256;22.478;2022-09-21T18:02:41;9.90;99.90
26743;DHT22;14341;51.256;22.478;2022-09-21T18:05:46;9.90;99.90
26743;DHT22;14341;51.256;22.478;2022-09-21T18:08:52;9.80;99.90
26743;DHT22;14341;51.256;22.478;2022-09-21T18:12:34;9.70;99.90
26743;DHT22;14341;51.256;22.478;2022-09-21T18:15:51;9.60;99.90
26743;DHT22;14341;51.256;22.478;2022-09-21T18:19:22;9.50;99.90
26743;DHT22;14341;51.256;22.478;2022-09-21T18:22:34;9.50;99.90
26743;DHT22;14341;51.256;22.478;2022-09-21T18:25:43;9.40;99.90
26743;DHT22;14341;51.256;22.478;2022-09-21T18:28:53;9.40;99.90
26743;DHT22;14341;51.256;22.478;2022-09-21T18:32:17;9.40;99.90
26743;DHT22;14341;51.256;22.478;2022-09-21T19:26:41;9.70;99.90
26743;DHT22;14341;51.256;22.478;2022-09-21T20:03:17;9.80;99.90
26743;DHT22;14341;51.256;22.478;2022-09-21T20:06:27;9.80;99.90
26743;DHT22;14341;51.256;22.478;2022-09-21T20:09:34;9.70;99.90
26743;DHT22;14341;51.256;22.478;2022-09-21T20:12:44;9.70;99.90
26743;DHT22;14341;51.256;22.478;2022-09-21T20:15:54;9.70;99.90
26743;DHT22;14341;51.256;22.478;2022-09-21T20:19:15;9.60;99.90
26743;DHT22;14341;51.256;22.478;2022-09-21T20:22:28;9.60;99.90
26743;DHT22;14341;51.256;22.478;2022-09-21T20:25:36;9.70;99.90
26743;DHT22;14341;51.256;22.478;2022-09-21T20:28:41;9.70;99.90
26743;DHT22;14341;51.256;22.478;2022-09-21T20:31:45;9.70;99.90
26743;DHT22;14341;51.256;22.478;2022-09-21T20:34:51;9.70;99.90
26743;DHT22;14341;51.256;22.478;2022-09-21T20:37:54;9.70;99.90
26743;DHT22;14341;51.256;22.478;2022-09-21T20:41:04;9.70;99.90
26743;DHT22;14341;51.256;22.478;2022-09-21T20:44:11;9.70;99.90
26743;DHT22;14341;51.256;22.478;2022-09-21T20:47:15;9.60;99.90
26743;DHT22;14341;51.256;22.478;2022-09-21T20:50:21;9.60;99.90
26743;DHT22;14341;51.256;22.478;2022-09-21T20:53:27;9.50;99.90
26743;DHT22;14341;51.256;22.478;2022-09-21T20:56:32;9.50;99.90
26743;DHT22;14341;51.256;22.478;2022-09-21T20:59:35;9.50;99.90
26743;DHT22;14341;51.256;22.478;2022-09-21T21:02:39;9.50;99.90
26743;DHT22;14341;51.256;22.478;2022-09-21T21:05:44;9.50;99.90
26743;DHT22;14341;51.256;22.478;2022-09-21T21:08:47;9.50;99.90
26743;DHT22;14341;51.256;22.478;2022-09-21T21:11:51;9.50;99.90
26743;DHT22;14341;51.256;22.478;2022-09-21T21:14:55;9.50;99.90
26743;DHT22;14341;51.256;22.478;2022-09-21T21:18:00;9.60;99.90
26743;DHT22;14341;51.256;22.478;2022-09-21T21:21:04;9.60;99.90
26743;DHT22;14341;51.256;22.478;2022-09-21T21:24:08;9.60;99.90
26743;DHT22;14341;51.256;22.478;2022-09-21T21:27:29;9.60;99.90